Virtual LH

Virtual LH. There's no better way to fly
Since 2013.



AIRPORT MAP

METAR AND TAF INFORMATION

METAR FOR LGKV
ADDS - METARS form results

(0632 UTC 18 January 2019)
Data provider http://aviationweather.gov/metar/data/
 
METAR text: LGKV 180620Z 00000KT 9999 FEW016 M01/M02 Q1017
Conditions at: LGKV (KAVALA/CHRISOUPO, GR) observed 0620 UTC 18 January 2019
Temperature: -1.0°C (30°F)
Dewpoint: -2.0°C (28°F) [RH = 93%]
Pressure (altimeter): 30.03 inches Hg (1017.0 mb)
Winds: calm
Visibility: 6 or more miles (10+ km)
Ceiling: at least 12,000 feet AGL
Clouds: few clouds at 1600 feet AGL
Weather: no significant weather observed at this time

METAR text: LGKV 180550Z 00000KT 9999 FEW016 M01/M02 Q1017
Conditions at: LGKV (KAVALA/CHRISOUPO, GR) observed 0550 UTC 18 January 2019
Temperature: -1.0°C (30°F)
Dewpoint: -2.0°C (28°F) [RH = 93%]
Pressure (altimeter): 30.03 inches Hg (1017.0 mb)
Winds: calm
Visibility: 6 or more miles (10+ km)
Ceiling: at least 12,000 feet AGL
Clouds: few clouds at 1600 feet AGL
Weather: no significant weather observed at this time

Forecast for: LGKV (KAVALA/CHRISOUPO, GR)
Text: TAF LGKV 180500Z 1806/1815 VRB05KT 9999 FEW016
Forecast period: 0600 to 1500 UTC 18 January 2019
Forecast type: FROM: standard forecast or significant change
Winds: variable direction winds at 6 MPH (5 knots; 2.6 m/s)
Visibility: 6 or more miles 10+ km)
Ceiling: at least 12,000 feet AGL
Clouds: few clouds at 1600 feet AGL
Weather: no significant weather forecast for this period

RUNWAY INFORMATION

Runway 05R Runway length 9844 ft Runway width 148 ft
Runway elevation 11 ft Runway displaced threshold 0 ft Runway heading 55
Runway 23L Runway length 9844 ft Runway width 148 ft
Runway elevation 18 ft Runway displaced threshold 0 ft Runway heading 235

AIRPORT FREQUENCIES

Type A/G Name RDO Frequency 563.7 MHZ
Type APP Name KAVALA APP Frequency 122.1 MHZ
Type TWR Name TWR Frequency 118.4 MHZ

AIRPORT NEAR NAVIGATION AIDS

Type NDB Name Chrisoupolis Frequency 327 KHZ
Type VOR-DME Name Kavala Frequency 108800 KHZ
Type TACAN Name Kavala Frequency 114300 KHZ